sensor_id;sensor_type;location;lat;lon;timestamp;P1;durP1;ratioP1;P2;durP2;ratioP2
19940;SDS011;10132;50.864;5.176;2023-11-21T00:17:54;122.37;;;111.87;;
19940;SDS011;10132;50.864;5.176;2023-11-21T00:19:56;156.73;;;144.23;;
19940;SDS011;10132;50.864;5.176;2023-11-21T00:21:57;157.77;;;145.17;;
19940;SDS011;10132;50.864;5.176;2023-11-21T00:23:59;144.40;;;132.63;;
19940;SDS011;10132;50.864;5.176;2023-11-21T00:26:01;137.03;;;124.13;;
19940;SDS011;10132;50.864;5.176;2023-11-21T00:28:04;193.20;;;178.57;;
19940;SDS011;10132;50.864;5.176;2023-11-21T00:30:06;189.70;;;175.70;;
19940;SDS011;10132;50.864;5.176;2023-11-21T00:32:10;144.87;;;132.97;;
19940;SDS011;10132;50.864;5.176;2023-11-21T00:34:12;154.33;;;141.70;;
19940;SDS011;10132;50.864;5.176;2023-11-21T00:36:14;206.60;;;191.67;;
19940;SDS011;10132;50.864;5.176;2023-11-21T00:38:16;161.80;;;149.47;;
19940;SDS011;10132;50.864;5.176;2023-11-21T00:40:20;126.57;;;115.17;;
19940;SDS011;10132;50.864;5.176;2023-11-21T00:42:22;153.77;;;141.03;;
19940;SDS011;10132;50.864;5.176;2023-11-21T00:44:23;154.77;;;142.20;;
19940;SDS011;10132;50.864;5.176;2023-11-21T00:46:25;138.73;;;127.53;;
19940;SDS011;10132;50.864;5.176;2023-11-21T00:48:30;165.97;;;152.80;;
19940;SDS011;10132;50.864;5.176;2023-11-21T00:50:32;161.67;;;149.27;;
19940;SDS011;10132;50.864;5.176;2023-11-21T00:52:34;217.93;;;201.77;;
19940;SDS011;10132;50.864;5.176;2023-11-21T00:54:36;201.40;;;186.77;;
19940;SDS011;10132;50.864;5.176;2023-11-21T00:56:38;216.70;;;201.27;;
19940;SDS011;10132;50.864;5.176;2023-11-21T00:58:40;191.90;;;177.97;;
19940;SDS011;10132;50.864;5.176;2023-11-21T01:00:42;227.90;;;212.00;;
19940;SDS011;10132;50.864;5.176;2023-11-21T01:02:44;225.60;;;209.90;;
19940;SDS011;10132;50.864;5.176;2023-11-21T01:04:48;236.00;;;219.93;;
19940;SDS011;10132;50.864;5.176;2023-11-21T01:06:50;212.97;;;197.97;;
19940;SDS011;10132;50.864;5.176;2023-11-21T01:08:52;212.50;;;197.20;;
19940;SDS011;10132;50.864;5.176;2023-11-21T01:10:54;226.50;;;210.43;;
19940;SDS011;10132;50.864;5.176;2023-11-21T01:12:56;232.97;;;216.70;;
19940;SDS011;10132;50.864;5.176;2023-11-21T01:14:58;254.17;;;237.23;;
19940;SDS011;10132;50.864;5.176;2023-11-21T01:17:00;238.37;;;221.83;;
19940;SDS011;10132;50.864;5.176;2023-11-21T01:19:04;218.63;;;203.60;;
19940;SDS011;10132;50.864;5.176;2023-11-21T01:21:07;250.83;;;233.53;;
19940;SDS011;10132;50.864;5.176;2023-11-21T01:23:09;223.07;;;207.33;;
19940;SDS011;10132;50.864;5.176;2023-11-21T01:25:11;238.63;;;222.10;;
19940;SDS011;10132;50.864;5.176;2023-11-21T01:27:14;230.60;;;214.97;;
19940;SDS011;10132;50.864;5.176;2023-11-21T01:29:15;224.57;;;209.37;;
19940;SDS011;10132;50.864;5.176;2023-11-21T01:31:17;209.07;;;194.57;;
19940;SDS011;10132;50.864;5.176;2023-11-21T01:33:18;206.57;;;192.03;;
19940;SDS011;10132;50.864;5.176;2023-11-21T01:35:20;189.00;;;175.27;;
19940;SDS011;10132;50.864;5.176;2023-11-21T01:37:23;190.83;;;177.33;;
19940;SDS011;10132;50.864;5.176;2023-11-21T01:39:27;177.60;;;163.97;;
19940;SDS011;10132;50.864;5.176;2023-11-21T01:41:29;157.30;;;144.87;;
19940;SDS011;10132;50.864;5.176;2023-11-21T01:43:31;164.13;;;151.53;;
19940;SDS011;10132;50.864;5.176;2023-11-21T01:45:34;175.37;;;161.63;;
19940;SDS011;10132;50.864;5.176;2023-11-21T01:47:36;182.20;;;168.27;;
19940;SDS011;10132;50.864;5.176;2023-11-21T01:49:39;217.00;;;201.10;;
19940;SDS011;10132;50.864;5.176;2023-11-21T01:51:43;163.50;;;150.97;;
19940;SDS011;10132;50.864;5.176;2023-11-21T01:53:49;208.80;;;193.67;;
19940;SDS011;10132;50.864;5.176;2023-11-21T01:55:51;195.60;;;181.43;;
19940;SDS011;10132;50.864;5.176;2023-11-21T01:57:54;196.50;;;182.47;;
19940;SDS011;10132;50.864;5.176;2023-11-21T01:59:56;167.10;;;154.93;;
19940;SDS011;10132;50.864;5.176;2023-11-21T02:02:15;132.10;;;121.80;;
19940;SDS011;10132;50.864;5.176;2023-11-21T02:04:17;126.00;;;115.47;;
19940;SDS011;10132;50.864;5.176;2023-11-21T02:06:19;122.03;;;112.20;;
19940;SDS011;10132;50.864;5.176;2023-11-21T02:08:22;126.60;;;115.20;;
19940;SDS011;10132;50.864;5.176;2023-11-21T02:10:25;127.83;;;117.73;;
19940;SDS011;10132;50.864;5.176;2023-11-21T02:12:27;122.23;;;111.37;;
19940;SDS011;10132;50.864;5.176;2023-11-21T02:14:29;123.53;;;112.73;;
19940;SDS011;10132;50.864;5.176;2023-11-21T02:16:32;122.90;;;112.90;;
19940;SDS011;10132;50.864;5.176;2023-11-21T02:18:34;123.30;;;113.03;;
19940;SDS011;10132;50.864;5.176;2023-11-21T02:20:37;136.97;;;125.27;;
19940;SDS011;10132;50.864;5.176;2023-11-21T02:22:41;108.33;;;95.90;;
19940;SDS011;10132;50.864;5.176;2023-11-21T02:24:45;106.40;;;96.30;;
19940;SDS011;10132;50.864;5.176;2023-11-21T02:26:48;106.73;;;96.33;;
19940;SDS011;10132;50.864;5.176;2023-11-21T02:28:51;118.20;;;106.30;;
19940;SDS011;10132;50.864;5.176;2023-11-21T02:30:53;128.10;;;115.83;;
19940;SDS011;10132;50.864;5.176;2023-11-21T02:32:58;110.70;;;99.63;;
19940;SDS011;10132;50.864;5.176;2023-11-21T02:34:59;115.27;;;104.17;;
19940;SDS011;10132;50.864;5.176;2023-11-21T02:37:03;109.43;;;98.80;;
19940;SDS011;10132;50.864;5.176;2023-11-21T02:39:05;103.30;;;92.17;;
19940;SDS011;10132;50.864;5.176;2023-11-21T02:41:09;106.53;;;95.73;;
19940;SDS011;10132;50.864;5.176;2023-11-21T02:43:11;111.23;;;99.53;;
19940;SDS011;10132;50.864;5.176;2023-11-21T02:45:14;116.43;;;104.50;;
19940;SDS011;10132;50.864;5.176;2023-11-21T02:47:16;124.13;;;111.30;;
19940;SDS011;10132;50.864;5.176;2023-11-21T02:49:18;122.97;;;110.47;;
19940;SDS011;10132;50.864;5.176;2023-11-21T02:51:20;117.60;;;106.17;;
19940;SDS011;10132;50.864;5.176;2023-11-21T02:53:23;122.47;;;110.47;;
19940;SDS011;10132;50.864;5.176;2023-11-21T02:55:25;147.37;;;134.57;;
19940;SDS011;10132;50.864;5.176;2023-11-21T02:57:27;151.23;;;137.93;;
19940;SDS011;10132;50.864;5.176;2023-11-21T02:59:29;143.47;;;130.93;;
19940;SDS011;10132;50.864;5.176;2023-11-21T03:01:31;144.83;;;132.33;;
19940;SDS011;10132;50.864;5.176;2023-11-21T03:03:33;121.17;;;109.70;;
19940;SDS011;10132;50.864;5.176;2023-11-21T03:05:37;161.83;;;148.13;;
19940;SDS011;10132;50.864;5.176;2023-11-21T03:07:39;130.60;;;118.57;;
19940;SDS011;10132;50.864;5.176;2023-11-21T03:09:40;148.03;;;134.53;;
19940;SDS011;10132;50.864;5.176;2023-11-21T03:11:42;161.73;;;148.80;;
19940;SDS011;10132;50.864;5.176;2023-11-21T03:13:46;139.23;;;125.73;;
19940;SDS011;10132;50.864;5.176;2023-11-21T03:15:47;148.67;;;134.63;;
19940;SDS011;10132;50.864;5.176;2023-11-21T03:17:49;124.20;;;111.80;;
19940;SDS011;10132;50.864;5.176;2023-11-21T03:19:52;125.97;;;113.13;;
19940;SDS011;10132;50.864;5.176;2023-11-21T03:21:54;110.37;;;99.50;;
19940;SDS011;10132;50.864;5.176;2023-11-21T03:23:56;107.40;;;96.60;;
19940;SDS011;10132;50.864;5.176;2023-11-21T03:25:59;113.53;;;102.23;;
19940;SDS011;10132;50.864;5.176;2023-11-21T03:28:00;134.73;;;121.73;;
19940;SDS011;10132;50.864;5.176;2023-11-21T03:30:05;117.93;;;105.80;;
19940;SDS011;10132;50.864;5.176;2023-11-21T03:32:08;147.70;;;133.73;;
19940;SDS011;10132;50.864;5.176;2023-11-21T03:34:15;113.47;;;102.10;;
19940;SDS011;10132;50.864;5.176;2023-11-21T03:36:16;95.00;;;81.93;;
19940;SDS011;10132;50.864;5.176;2023-11-21T03:38:19;87.03;;;76.40;;
19940;SDS011;10132;50.864;5.176;2023-11-21T03:40:21;97.60;;;87.30;;
19940;SDS011;10132;50.864;5.176;2023-11-21T03:42:23;106.07;;;95.27;;
19940;SDS011;10132;50.864;5.176;2023-11-21T03:44:26;99.50;;;88.97;;
19940;SDS011;10132;50.864;5.176;2023-11-21T03:46:30;95.03;;;84.83;;
19940;SDS011;10132;50.864;5.176;2023-11-21T03:48:32;94.30;;;80.67;;
19940;SDS011;10132;50.864;5.176;2023-11-21T03:50:34;97.33;;;86.93;;
19940;SDS011;10132;50.864;5.176;2023-11-21T03:52:36;93.10;;;83.30;;
19940;SDS011;10132;50.864;5.176;2023-11-21T03:54:39;114.70;;;102.97;;
19940;SDS011;10132;50.864;5.176;2023-11-21T03:56:41;98.03;;;87.43;;
19940;SDS011;10132;50.864;5.176;2023-11-21T03:58:41;118.70;;;106.63;;
19940;SDS011;10132;50.864;5.176;2023-11-21T04:00:43;101.60;;;76.50;;
19940;SDS011;10132;50.864;5.176;2023-11-21T04:02:47;98.10;;;74.27;;
19940;SDS011;10132;50.864;5.176;2023-11-21T04:04:51;98.03;;;80.00;;
19940;SDS011;10132;50.864;5.176;2023-11-21T04:06:52;90.23;;;74.27;;
19940;SDS011;10132;50.864;5.176;2023-11-21T04:08:54;106.57;;;88.80;;
19940;SDS011;10132;50.864;5.176;2023-11-21T04:10:56;115.57;;;103.80;;
19940;SDS011;10132;50.864;5.176;2023-11-21T04:12:58;101.10;;;83.93;;
19940;SDS011;10132;50.864;5.176;2023-11-21T04:15:00;108.10;;;90.27;;
19940;SDS011;10132;50.864;5.176;2023-11-21T04:17:02;107.70;;;96.20;;
19940;SDS011;10132;50.864;5.176;2023-11-21T04:19:07;109.83;;;97.87;;
19940;SDS011;10132;50.864;5.176;2023-11-21T04:21:10;115.33;;;93.37;;
19940;SDS011;10132;50.864;5.176;2023-11-21T04:23:12;114.17;;;95.60;;
19940;SDS011;10132;50.864;5.176;2023-11-21T04:25:14;124.67;;;106.90;;
19940;SDS011;10132;50.864;5.176;2023-11-21T04:27:17;131.23;;;100.77;;
19940;SDS011;10132;50.864;5.176;2023-11-21T04:29:19;114.23;;;86.87;;
19940;SDS011;10132;50.864;5.176;2023-11-21T04:31:21;118.00;;;92.80;;
19940;SDS011;10132;50.864;5.176;2023-11-21T04:33:22;106.53;;;88.20;;
19940;SDS011;10132;50.864;5.176;2023-11-21T04:35:27;113.23;;;90.93;;
19940;SDS011;10132;50.864;5.176;2023-11-21T04:37:29;143.40;;;128.93;;
19940;SDS011;10132;50.864;5.176;2023-11-21T04:39:30;114.23;;;97.53;;
19940;SDS011;10132;50.864;5.176;2023-11-21T04:41:32;128.97;;;115.57;;
19940;SDS011;10132;50.864;5.176;2023-11-21T04:43:33;126.97;;;113.17;;
19940;SDS011;10132;50.864;5.176;2023-11-21T04:45:35;121.57;;;100.13;;
19940;SDS011;10132;50.864;5.176;2023-11-21T04:47:37;143.17;;;111.60;;
19940;SDS011;10132;50.864;5.176;2023-11-21T04:49:41;233.33;;;124.77;;
19940;SDS011;10132;50.864;5.176;2023-11-21T04:51:45;134.97;;;91.93;;
19940;SDS011;10132;50.864;5.176;2023-11-21T04:53:47;141.47;;;127.30;;
19940;SDS011;10132;50.864;5.176;2023-11-21T04:55:49;282.03;;;205.20;;
19940;SDS011;10132;50.864;5.176;2023-11-21T04:57:51;122.30;;;82.73;;
19940;SDS011;10132;50.864;5.176;2023-11-21T04:59:52;122.07;;;84.63;;
19940;SDS011;10132;50.864;5.176;2023-11-21T05:01:54;137.37;;;85.23;;
19940;SDS011;10132;50.864;5.176;2023-11-21T05:03:56;115.47;;;78.40;;
19940;SDS011;10132;50.864;5.176;2023-11-21T05:05:58;189.43;;;96.77;;
19940;SDS011;10132;50.864;5.176;2023-11-21T05:08:02;138.73;;;92.13;;
19940;SDS011;10132;50.864;5.176;2023-11-21T05:10:05;269.97;;;125.33;;
19940;SDS011;10132;50.864;5.176;2023-11-21T05:12:10;127.27;;;105.80;;
19940;SDS011;10132;50.864;5.176;2023-11-21T05:14:12;176.73;;;142.47;;
19940;SDS011;10132;50.864;5.176;2023-11-21T05:16:14;163.90;;;146.70;;
19940;SDS011;10132;50.864;5.176;2023-11-21T05:18:16;191.60;;;142.07;;
19940;SDS011;10132;50.864;5.176;2023-11-21T05:20:18;160.80;;;145.50;;
19940;SDS011;10132;50.864;5.176;2023-11-21T05:22:21;218.23;;;130.80;;
19940;SDS011;10132;50.864;5.176;2023-11-21T05:24:23;217.43;;;143.93;;
19940;SDS011;10132;50.864;5.176;2023-11-21T05:26:25;161.20;;;143.97;;
19940;SDS011;10132;50.864;5.176;2023-11-21T05:28:27;200.50;;;182.60;;
19940;SDS011;10132;50.864;5.176;2023-11-21T05:30:28;245.63;;;226.53;;
19940;SDS011;10132;50.864;5.176;2023-11-21T05:32:30;235.10;;;157.93;;
19940;SDS011;10132;50.864;5.176;2023-11-21T05:34:32;129.67;;;88.73;;
19940;SDS011;10132;50.864;5.176;2023-11-21T05:36:34;175.70;;;115.00;;
19940;SDS011;10132;50.864;5.176;2023-11-21T05:38:36;108.60;;;94.63;;
19940;SDS011;10132;50.864;5.176;2023-11-21T05:40:39;113.77;;;101.70;;
19940;SDS011;10132;50.864;5.176;2023-11-21T05:42:42;142.43;;;110.23;;
19940;SDS011;10132;50.864;5.176;2023-11-21T05:44:43;165.93;;;148.47;;
19940;SDS011;10132;50.864;5.176;2023-11-21T05:46:45;115.90;;;99.47;;
19940;SDS011;10132;50.864;5.176;2023-11-21T05:48:47;172.70;;;157.17;;
19940;SDS011;10132;50.864;5.176;2023-11-21T05:50:49;161.03;;;146.33;;
19940;SDS011;10132;50.864;5.176;2023-11-21T05:52:51;141.60;;;128.80;;
19940;SDS011;10132;50.864;5.176;2023-11-21T05:54:52;139.47;;;125.87;;
19940;SDS011;10132;50.864;5.176;2023-11-21T05:56:55;173.60;;;158.83;;
19940;SDS011;10132;50.864;5.176;2023-11-21T05:58:57;110.50;;;99.50;;
19940;SDS011;10132;50.864;5.176;2023-11-21T06:00:59;101.47;;;91.03;;
19940;SDS011;10132;50.864;5.176;2023-11-21T06:03:00;144.00;;;131.47;;
19940;SDS011;10132;50.864;5.176;2023-11-21T06:05:03;132.80;;;120.13;;
19940;SDS011;10132;50.864;5.176;2023-11-21T06:07:04;119.17;;;106.10;;
19940;SDS011;10132;50.864;5.176;2023-11-21T06:09:07;95.93;;;85.53;;
19940;SDS011;10132;50.864;5.176;2023-11-21T06:11:09;119.27;;;108.23;;
19940;SDS011;10132;50.864;5.176;2023-11-21T06:13:13;90.07;;;80.40;;
19940;SDS011;10132;50.864;5.176;2023-11-21T06:15:14;101.30;;;91.43;;
19940;SDS011;10132;50.864;5.176;2023-11-21T06:17:19;84.83;;;75.90;;
19940;SDS011;10132;50.864;5.176;2023-11-21T06:19:20;81.43;;;68.33;;
19940;SDS011;10132;50.864;5.176;2023-11-21T06:21:22;89.63;;;76.43;;
19940;SDS011;10132;50.864;5.176;2023-11-21T06:23:24;99.50;;;84.80;;
19940;SDS011;10132;50.864;5.176;2023-11-21T06:25:26;86.10;;;76.70;;
19940;SDS011;10132;50.864;5.176;2023-11-21T06:27:28;86.53;;;73.93;;
19940;SDS011;10132;50.864;5.176;2023-11-21T06:29:31;92.93;;;82.90;;
19940;SDS011;10132;50.864;5.176;2023-11-21T06:31:33;77.60;;;64.50;;
19940;SDS011;10132;50.864;5.176;2023-11-21T06:33:35;82.93;;;67.60;;
19940;SDS011;10132;50.864;5.176;2023-11-21T06:35:37;80.70;;;69.00;;
19940;SDS011;10132;50.864;5.176;2023-11-21T06:37:40;87.43;;;72.60;;
19940;SDS011;10132;50.864;5.176;2023-11-21T06:39:47;85.47;;;70.40;;
19940;SDS011;10132;50.864;5.176;2023-11-21T06:41:49;86.00;;;71.03;;
19940;SDS011;10132;50.864;5.176;2023-11-21T06:43:51;88.30;;;70.47;;
19940;SDS011;10132;50.864;5.176;2023-11-21T06:45:54;77.13;;;65.47;;
19940;SDS011;10132;50.864;5.176;2023-11-21T06:47:56;78.57;;;67.67;;
19940;SDS011;10132;50.864;5.176;2023-11-21T06:49:58;82.63;;;71.43;;
19940;SDS011;10132;50.864;5.176;2023-11-21T06:51:59;84.23;;;69.43;;
19940;SDS011;10132;50.864;5.176;2023-11-21T06:54:02;79.30;;;68.90;;
19940;SDS011;10132;50.864;5.176;2023-11-21T06:56:04;77.47;;;66.57;;
19940;SDS011;10132;50.864;5.176;2023-11-21T06:58:06;77.60;;;67.37;;
19940;SDS011;10132;50.864;5.176;2023-11-21T07:00:09;79.90;;;68.80;;
19940;SDS011;10132;50.864;5.176;2023-11-21T07:02:13;82.87;;;69.77;;
19940;SDS011;10132;50.864;5.176;2023-11-21T07:04:15;80.97;;;69.23;;
19940;SDS011;10132;50.864;5.176;2023-11-21T07:06:18;81.57;;;72.60;;
19940;SDS011;10132;50.864;5.176;2023-11-21T07:08:20;81.93;;;69.93;;
19940;SDS011;10132;50.864;5.176;2023-11-21T07:10:22;88.20;;;79.00;;
19940;SDS011;10132;50.864;5.176;2023-11-21T07:12:24;80.30;;;67.17;;
19940;SDS011;10132;50.864;5.176;2023-11-21T07:14:26;83.43;;;68.67;;
19940;SDS011;10132;50.864;5.176;2023-11-21T07:16:27;77.33;;;66.83;;
19940;SDS011;10132;50.864;5.176;2023-11-21T07:18:31;80.30;;;67.60;;
19940;SDS011;10132;50.864;5.176;2023-11-21T07:20:33;75.10;;;62.60;;
19940;SDS011;10132;50.864;5.176;2023-11-21T07:22:35;82.07;;;68.20;;
19940;SDS011;10132;50.864;5.176;2023-11-21T07:24:37;77.30;;;66.40;;
19940;SDS011;10132;50.864;5.176;2023-11-21T07:26:39;72.80;;;63.87;;
19940;SDS011;10132;50.864;5.176;2023-11-21T07:28:41;79.07;;;66.50;;
19940;SDS011;10132;50.864;5.176;2023-11-21T07:30:43;80.77;;;67.10;;
19940;SDS011;10132;50.864;5.176;2023-11-21T07:32:45;78.60;;;67.10;;
19940;SDS011;10132;50.864;5.176;2023-11-21T07:34:49;78.80;;;68.47;;
19940;SDS011;10132;50.864;5.176;2023-11-21T07:36:51;86.97;;;77.47;;
19940;SDS011;10132;50.864;5.176;2023-11-21T07:38:53;83.23;;;68.27;;
19940;SDS011;10132;50.864;5.176;2023-11-21T07:40:55;78.33;;;69.93;;
19940;SDS011;10132;50.864;5.176;2023-11-21T07:42:57;82.07;;;66.27;;
19940;SDS011;10132;50.864;5.176;2023-11-21T07:44:59;73.47;;;63.33;;
19940;SDS011;10132;50.864;5.176;2023-11-21T07:47:03;78.67;;;65.57;;
19940;SDS011;10132;50.864;5.176;2023-11-21T07:49:05;91.80;;;71.90;;
19940;SDS011;10132;50.864;5.176;2023-11-21T07:51:08;79.10;;;63.63;;
19940;SDS011;10132;50.864;5.176;2023-11-21T07:53:12;104.27;;;94.73;;
19940;SDS011;10132;50.864;5.176;2023-11-21T07:55:14;87.63;;;78.67;;
19940;SDS011;10132;50.864;5.176;2023-11-21T07:57:15;98.07;;;88.60;;
19940;SDS011;10132;50.864;5.176;2023-11-21T07:59:18;85.67;;;76.60;;
19940;SDS011;10132;50.864;5.176;2023-11-21T08:01:19;94.97;;;85.60;;
19940;SDS011;10132;50.864;5.176;2023-11-21T08:03:21;82.90;;;74.20;;
19940;SDS011;10132;50.864;5.176;2023-11-21T08:05:23;80.07;;;71.50;;
19940;SDS011;10132;50.864;5.176;2023-11-21T08:07:27;72.13;;;64.40;;
19940;SDS011;10132;50.864;5.176;2023-11-21T08:09:29;76.37;;;68.13;;
19940;SDS011;10132;50.864;5.176;2023-11-21T08:11:31;69.17;;;61.07;;
19940;SDS011;10132;50.864;5.176;2023-11-21T08:13:33;70.50;;;62.90;;
19940;SDS011;10132;50.864;5.176;2023-11-21T08:15:35;74.17;;;63.23;;
19940;SDS011;10132;50.864;5.176;2023-11-21T08:17:37;79.53;;;69.33;;
19940;SDS011;10132;50.864;5.176;2023-11-21T08:19:39;72.43;;;64.67;;
19940;SDS011;10132;50.864;5.176;2023-11-21T08:21:41;77.40;;;69.10;;
19940;SDS011;10132;50.864;5.176;2023-11-21T08:23:44;75.47;;;66.30;;
19940;SDS011;10132;50.864;5.176;2023-11-21T08:25:47;72.07;;;64.33;;
19940;SDS011;10132;50.864;5.176;2023-11-21T08:27:49;68.23;;;60.83;;
19940;SDS011;10132;50.864;5.176;2023-11-21T08:29:51;70.00;;;61.27;;
19940;SDS011;10132;50.864;5.176;2023-11-21T08:31:53;79.23;;;64.17;;
19940;SDS011;10132;50.864;5.176;2023-11-21T08:33:56;74.50;;;65.63;;
19940;SDS011;10132;50.864;5.176;2023-11-21T08:35:58;75.60;;;67.70;;
19940;SDS011;10132;50.864;5.176;2023-11-21T08:38:01;77.83;;;69.33;;
19940;SDS011;10132;50.864;5.176;2023-11-21T08:40:05;78.70;;;70.10;;
19940;SDS011;10132;50.864;5.176;2023-11-21T08:42:09;84.57;;;76.33;;
19940;SDS011;10132;50.864;5.176;2023-11-21T08:44:10;73.87;;;65.90;;
19940;SDS011;10132;50.864;5.176;2023-11-21T08:46:12;76.80;;;69.07;;
19940;SDS011;10132;50.864;5.176;2023-11-21T08:48:14;78.03;;;69.97;;
19940;SDS011;10132;50.864;5.176;2023-11-21T08:50:16;76.80;;;68.60;;
19940;SDS011;10132;50.864;5.176;2023-11-21T08:52:19;87.47;;;78.67;;
19940;SDS011;10132;50.864;5.176;2023-11-21T08:54:23;83.13;;;74.53;;
19940;SDS011;10132;50.864;5.176;2023-11-21T08:56:27;109.43;;;99.13;;
19940;SDS011;10132;50.864;5.176;2023-11-21T08:58:28;84.67;;;75.93;;
19940;SDS011;10132;50.864;5.176;2023-11-21T09:00:31;83.60;;;74.43;;
19940;SDS011;10132;50.864;5.176;2023-11-21T09:02:33;79.30;;;70.90;;
19940;SDS011;10132;50.864;5.176;2023-11-21T09:04:36;74.10;;;66.53;;
19940;SDS011;10132;50.864;5.176;2023-11-21T09:06:39;75.43;;;67.23;;
19940;SDS011;10132;50.864;5.176;2023-11-21T09:08:41;70.83;;;63.20;;
19940;SDS011;10132;50.864;5.176;2023-11-21T09:10:43;73.33;;;63.50;;
19940;SDS011;10132;50.864;5.176;2023-11-21T09:12:48;74.97;;;62.53;;
19940;SDS011;10132;50.864;5.176;2023-11-21T09:14:52;69.70;;;61.07;;
19940;SDS011;10132;50.864;5.176;2023-11-21T09:16:54;69.70;;;61.47;;
19940;SDS011;10132;50.864;5.176;2023-11-21T09:18:56;75.60;;;68.07;;
19940;SDS011;10132;50.864;5.176;2023-11-21T09:20:58;84.07;;;75.03;;
19940;SDS011;10132;50.864;5.176;2023-11-21T09:23:00;71.23;;;63.73;;
19940;SDS011;10132;50.864;5.176;2023-11-21T09:25:02;77.57;;;69.20;;
19940;SDS011;10132;50.864;5.176;2023-11-21T09:27:05;65.67;;;54.93;;
19940;SDS011;10132;50.864;5.176;2023-11-21T09:29:08;69.50;;;57.53;;
19940;SDS011;10132;50.864;5.176;2023-11-21T09:31:10;67.83;;;55.13;;
19940;SDS011;10132;50.864;5.176;2023-11-21T09:33:12;66.77;;;54.93;;
19940;SDS011;10132;50.864;5.176;2023-11-21T09:35:15;71.03;;;63.43;;
19940;SDS011;10132;50.864;5.176;2023-11-21T09:37:17;86.87;;;78.80;;
19940;SDS011;10132;50.864;5.176;2023-11-21T09:39:19;71.83;;;63.50;;
19940;SDS011;10132;50.864;5.176;2023-11-21T09:41:22;67.10;;;55.50;;
19940;SDS011;10132;50.864;5.176;2023-11-21T09:43:32;66.30;;;58.10;;
19940;SDS011;10132;50.864;5.176;2023-11-21T09:45:35;82.77;;;74.47;;
19940;SDS011;10132;50.864;5.176;2023-11-21T09:47:39;104.17;;;94.23;;
19940;SDS011;10132;50.864;5.176;2023-11-21T09:49:41;91.97;;;83.47;;
19940;SDS011;10132;50.864;5.176;2023-11-21T09:51:47;84.83;;;76.40;;
19940;SDS011;10132;50.864;5.176;2023-11-21T09:53:51;83.63;;;75.37;;
19940;SDS011;10132;50.864;5.176;2023-11-21T09:55:53;69.57;;;58.90;;
19940;SDS011;10132;50.864;5.176;2023-11-21T09:57:56;70.07;;;62.30;;
19940;SDS011;10132;50.864;5.176;2023-11-21T09:59:58;69.03;;;60.10;;
19940;SDS011;10132;50.864;5.176;2023-11-21T10:02:13;71.13;;;64.00;;
19940;SDS011;10132;50.864;5.176;2023-11-21T10:04:18;89.10;;;80.90;;
19940;SDS011;10132;50.864;5.176;2023-11-21T10:06:21;99.83;;;90.63;;
19940;SDS011;10132;50.864;5.176;2023-11-21T10:08:23;103.10;;;94.20;;
19940;SDS011;10132;50.864;5.176;2023-11-21T10:10:28;103.67;;;94.73;;
19940;SDS011;10132;50.864;5.176;2023-11-21T10:12:32;106.77;;;97.30;;
19940;SDS011;10132;50.864;5.176;2023-11-21T10:14:35;119.63;;;109.80;;
19940;SDS011;10132;50.864;5.176;2023-11-21T10:16:41;135.70;;;124.30;;
19940;SDS011;10132;50.864;5.176;2023-11-21T10:18:48;118.63;;;108.70;;
19940;SDS011;10132;50.864;5.176;2023-11-21T10:20:54;135.30;;;124.07;;
19940;SDS011;10132;50.864;5.176;2023-11-21T10:22:57;147.30;;;135.13;;
19940;SDS011;10132;50.864;5.176;2023-11-21T10:25:01;136.87;;;125.77;;
19940;SDS011;10132;50.864;5.176;2023-11-21T10:27:03;123.10;;;112.83;;
19940;SDS011;10132;50.864;5.176;2023-11-21T10:29:05;123.43;;;112.23;;
19940;SDS011;10132;50.864;5.176;2023-11-21T10:31:06;129.57;;;118.63;;
19940;SDS011;10132;50.864;5.176;2023-11-21T10:33:09;115.03;;;104.93;;
19940;SDS011;10132;50.864;5.176;2023-11-21T10:35:12;104.77;;;95.40;;
19940;SDS011;10132;50.864;5.176;2023-11-21T10:37:13;121.90;;;111.63;;
19940;SDS011;10132;50.864;5.176;2023-11-21T10:39:16;110.60;;;101.43;;
19940;SDS011;10132;50.864;5.176;2023-11-21T10:41:18;108.07;;;98.47;;
19940;SDS011;10132;50.864;5.176;2023-11-21T10:43:21;116.20;;;106.13;;
19940;SDS011;10132;50.864;5.176;2023-11-21T10:45:26;123.80;;;113.17;;
19940;SDS011;10132;50.864;5.176;2023-11-21T10:47:29;109.23;;;99.97;;
19940;SDS011;10132;50.864;5.176;2023-11-21T10:49:33;109.20;;;100.03;;
19940;SDS011;10132;50.864;5.176;2023-11-21T10:51:36;97.63;;;88.80;;
19940;SDS011;10132;50.864;5.176;2023-11-21T10:53:44;105.23;;;96.17;;
19940;SDS011;10132;50.864;5.176;2023-11-21T10:55:46;84.90;;;76.80;;
19940;SDS011;10132;50.864;5.176;2023-11-21T10:57:49;88.90;;;80.30;;
19940;SDS011;10132;50.864;5.176;2023-11-21T10:59:55;80.03;;;72.23;;
19940;SDS011;10132;50.864;5.176;2023-11-21T11:01:59;69.33;;;59.93;;
19940;SDS011;10132;50.864;5.176;2023-11-21T11:04:03;78.07;;;70.27;;
19940;SDS011;10132;50.864;5.176;2023-11-21T11:06:14;90.37;;;82.00;;
19940;SDS011;10132;50.864;5.176;2023-11-21T11:08:19;96.20;;;87.93;;
19940;SDS011;10132;50.864;5.176;2023-11-21T11:10:26;137.27;;;126.77;;
19940;SDS011;10132;50.864;5.176;2023-11-21T11:12:29;147.47;;;135.23;;
19940;SDS011;10132;50.864;5.176;2023-11-21T11:14:31;128.30;;;117.83;;
19940;SDS011;10132;50.864;5.176;2023-11-21T11:16:33;112.80;;;103.60;;
19940;SDS011;10132;50.864;5.176;2023-11-21T11:18:36;109.73;;;100.10;;
19940;SDS011;10132;50.864;5.176;2023-11-21T11:20:38;126.27;;;116.17;;
19940;SDS011;10132;50.864;5.176;2023-11-21T11:22:44;97.77;;;88.90;;
19940;SDS011;10132;50.864;5.176;2023-11-21T11:24:58;109.43;;;100.47;;
19940;SDS011;10132;50.864;5.176;2023-11-21T11:27:16;107.20;;;98.40;;
19940;SDS011;10132;50.864;5.176;2023-11-21T11:29:28;95.77;;;87.13;;
19940;SDS011;10132;50.864;5.176;2023-11-21T11:31:38;90.53;;;82.33;;
19940;SDS011;10132;50.864;5.176;2023-11-21T11:33:51;101.07;;;92.17;;
19940;SDS011;10132;50.864;5.176;2023-11-21T11:36:00;118.63;;;109.63;;
19940;SDS011;10132;50.864;5.176;2023-11-21T11:38:07;99.00;;;90.20;;
19940;SDS011;10132;50.864;5.176;2023-11-21T11:40:12;108.70;;;99.83;;
19940;SDS011;10132;50.864;5.176;2023-11-21T11:42:16;99.10;;;89.97;;
19940;SDS011;10132;50.864;5.176;2023-11-21T11:46:51;109.83;;;100.47;;
19940;SDS011;10132;50.864;5.176;2023-11-21T11:49:02;79.07;;;71.63;;
19940;SDS011;10132;50.864;5.176;2023-11-21T11:51:05;86.67;;;79.13;;
19940;SDS011;10132;50.864;5.176;2023-11-21T11:53:14;75.80;;;68.57;;
19940;SDS011;10132;50.864;5.176;2023-11-21T11:55:18;72.93;;;66.10;;
19940;SDS011;10132;50.864;5.176;2023-11-21T11:57:23;73.20;;;65.83;;
19940;SDS011;10132;50.864;5.176;2023-11-21T11:59:24;78.20;;;70.63;;
19940;SDS011;10132;50.864;5.176;2023-11-21T12:01:26;76.77;;;68.90;;
19940;SDS011;10132;50.864;5.176;2023-11-21T12:03:29;64.73;;;58.47;;
19940;SDS011;10132;50.864;5.176;2023-11-21T12:05:33;68.97;;;62.30;;
19940;SDS011;10132;50.864;5.176;2023-11-21T12:07:41;65.97;;;59.30;;